Nearby METAR Reports

 

KMTN - Baltimore/Martin, Maryland, USA
Distance from station: SSE 8mi, 13km
Updated: Fri, 22-May-2015 7:45am EDT
Clear
Clear
 Wind from W
Wind: W 7 mph , 11 km/h
Temperature: 55°F , 13°C
Dew Point: 46°F , 8°C
Humidity: 72%
Barometer: 30.04 inHg , 1017.3 hPa
Clouds: Clear
Visibility: 10 miles , 16 km
2015/05/22 11:45 KMTN 221145Z 26006KT 10SM SKC 13/08 A3004
KDMH - Baltimore/Dwntwn, Maryland, USA
Distance from station: SW 12mi, 19km
Updated: Fri, 22-May-2015 7:54am EDT

 
Temperature: 57°F , 14°C
Dew Point: 43°F , 6°C
Humidity: 59%
Barometer: 30.04 inHg , 1017.3 hPa
2015/05/22 11:54 KDMH 221154Z AUTO 14/06 A3004 RMK AO1 SLP171 70010 T01390061 10139 20111 51018
 
KBWI - Balto/Wash Intl, Maryland, USA
Distance from station: SSW 20mi, 33km
Updated: Fri, 22-May-2015 8:54am EDT
Clear
Clear
 Wind from W
Wind: W 9 mph , 15 km/h
Temperature: 59°F , 15°C
Dew Point: 46°F , 8°C
Humidity: 63%
Barometer: 30.05 inHg , 1017.6 hPa
Clouds: Clear
Visibility: 10 miles , 16 km
2015/05/22 12:54 KBWI 221254Z 27008KT 10SM CLR 15/08 A3005 RMK AO2 SLP176 T01500078
KDMW - Carroll Cnty, Maryland, USA
Distance from station: WNW 30mi, 48km
Updated: Fri, 22-May-2015 8:40am EDT
Clear
Clear
 Wind from W
Wind: W 10 mph , 17 km/h
Temperature: 55°F , 13°C
Dew Point: 43°F , 6°C
Humidity: 63%
Barometer: 30.06 inHg , 1017.9 hPa
Clouds: Clear
Visibility: 10 miles , 16 km
2015/05/22 12:40 KDMW 221240Z AUTO 27009KT 10SM CLR 13/06 A3006 RMK AO2
 
KNAK - Annapolis/Naval, Maryland, USA
Distance from station: S 30mi, 48km
Updated: Fri, 22-May-2015 8:54am EDT
Clear
Clear
 Wind from WNW
Wind: WNW 12 mph , 19 km/h
Temperature: 57°F , 14°C
Dew Point: 45°F , 7°C
Humidity: 63%
Barometer: 30.06 inHg , 1017.9 hPa
Clouds: Clear
Visibility: 10 miles , 16 km
2015/05/22 12:54 KNAK 221254Z AUTO 30010KT 10SM CLR 14/07 A3006 RMK AO2 SLP180 T01390072
KW29 - Stevensville, Maryland, USA
Distance from station: SSE 31mi, 50km
Updated: Fri, 22-May-2015 8:41am EDT

 Wind from WNW
Wind: WNW 8 mph , 13 km/h
Barometer: 30.06 inHg , 1017.9 hPa
Visibility: 10 miles , 16 km
2015/05/22 12:41 KW29 221241Z AUTO 30007KT 10SM A3006 RMK AO1
 
KCGS - College Park, Maryland, USA
Distance from station: SW 38mi, 61km
Updated: Fri, 22-May-2015 8:40am EDT
Clear
Clear
 Wind from W
Wind: W 5 mph , 7 km/h
Temperature: 59°F , 15°C
Dew Point: 45°F , 7°C
Humidity: 59%
Barometer: 30.07 inHg , 1018.3 hPa
Clouds: Clear
Visibility: 10 miles , 16 km
2015/05/22 12:40 KCGS 221240Z AUTO 28004KT 10SM CLR 15/07 A3007 RMK AO1
KGAI - Gaithersburg, Maryland, USA
Distance from station: WSW 40mi, 65km
Updated: Fri, 22-May-2015 8:55am EDT
Clear
Clear
 Wind from WNW
Wind: WNW 13 mph , 20 km/h, Gust: 18 mph , 30 km/h
Temperature: 55°F , 13°C
Dew Point: 43°F , 6°C
Humidity: 63%
Barometer: 30.12 inHg , 1020 hPa
Clouds: Clear
Visibility: 10 miles , 16 km
2015/05/22 12:55 KGAI 221255Z AUTO 30011G16KT 10SM CLR 13/06 A3012 RMK AO1
 
KTHV - York, Pennsylvania, USA
Distance from station: NNW 40mi, 65km
Updated: Fri, 22-May-2015 8:53am EDT
Clear
Clear
 Wind from WNW
Wind: WNW 8 mph , 13 km/h
Temperature: 61°F , 16°C
Dew Point: 43°F , 6°C
Humidity: 52%
Barometer: 30.04 inHg , 1017.3 hPa
Clouds: Clear
Visibility: 10 miles , 16 km
2015/05/22 12:53 KTHV 221253Z AUTO 29007KT 10SM CLR 16/06 A3004 RMK AO2 SLP175 T01560061
KFDK - Frederick, Maryland, USA
Distance from station: W 47mi, 75km
Updated: Fri, 22-May-2015 8:45am EDT
Clear
Clear
 Wind from W
Wind: W 8 mph , 13 km/h
Temperature: 59°F , 15°C
Dew Point: 46°F , 8°C
Humidity: 63%
Barometer: 30.11 inHg , 1019.6 hPa
Clouds: Clear
Visibility: 10 miles , 16 km
2015/05/22 12:45 KFDK 221245Z 27007KT 10SM SKC 15/08 A3011
 
KESN - Easton/Newnam, Maryland, USA
Distance from station: SSE 48mi, 78km
Updated: Fri, 22-May-2015 7:45am EDT
Clear
Clear
 Wind from NW
Wind: NW 9 mph , 15 km/h
Temperature: 57°F , 14°C
Dew Point: 48°F , 9°C
Humidity: 72%
Barometer: 30.08 inHg , 1018.6 hPa
Clouds: Clear
Visibility: 10 miles , 16 km
2015/05/22 11:45 KESN 221145Z 31008KT 10SM SKC 14/09 A3008
KDCA - Washington/Natl, Washington D.c., USA
Distance from station: SW 49mi, 79km
Updated: Fri, 22-May-2015 8:52am EDT
Clear
Clear
 Wind from NNW
Wind: NNW 10 mph , 17 km/h, Gust: 16 mph , 26 km/h
Temperature: 63°F , 17°C
Dew Point: 45°F , 7°C
Humidity: 52%
Barometer: 30.09 inHg , 1019 hPa
Clouds: Clear
Visibility: 10 miles , 16 km
2015/05/22 12:52 KDCA 221252Z 33009G14KT 10SM CLR 17/07 A3009 RMK AO2 SLP191 T01670067
 
KLNS - Lancaster, Pennsylvania, USA
Distance from station: N 49mi, 79km
Updated: Fri, 22-May-2015 8:53am EDT
Clear
Clear
 Wind from WNW
Wind: WNW 12 mph , 19 km/h, Gust: 24 mph , 39 km/h
Temperature: 57°F , 14°C
Dew Point: 43°F , 6°C
Humidity: 59%
Barometer: 30.01 inHg , 1016.3 hPa
Clouds: Clear
Visibility: 10 miles , 16 km
2015/05/22 12:53 KLNS 221253Z 30010G21KT 10SM CLR 14/06 A3001 RMK AO2 SLP163 T01440056
KILG - Wilmington, Delaware, USA
Distance from station: ENE 50mi, 81km
Updated: Fri, 22-May-2015 8:51am EDT
Clear
Clear
 Wind from NW
Wind: NW 16 mph , 26 km/h
Temperature: 61°F , 16°C
Dew Point: 45°F , 7°C
Humidity: 55%
Barometer: 30.02 inHg , 1016.6 hPa
Clouds: Clear
Visibility: 10 miles , 16 km
2015/05/22 12:51 KILG 221251Z 31014KT 10SM CLR 16/07 A3002 RMK AO2 SLP164 T01560072